XSN02L LEMG-LERL
Flight info
| Callsign | XSN02L |
|---|---|
| Flight time | N/A |
| Altitude | 8000 |
| Route | BLN |
| Aircraft | C208/L-SDFGR/C |
Departure
| Time | N/A |
|---|---|
| Airport | Málaga-Costa del Sol Airport (LEMG) |
Arrival
| Time | 2026-05-04 10:11 |
|---|---|
| Airport | Ciudad Real International Airport (LERL) |
| Time | Latitude | Longitude | Altitude | Speed | Heading |
|---|---|---|---|---|---|
| 2026-05-04 09:34 | 37.49639 | -4.02036 | 8009 ft | 180 kts | 28° |
| 2026-05-04 09:34 | 37.50696 | -4.01181 | 8008 ft | 180 kts | 28° |
| 2026-05-04 09:34 | 37.51750 | -4.00330 | 8009 ft | 179 kts | 28° |
| 2026-05-04 09:34 | 37.52801 | -3.99484 | 8006 ft | 180 kts | 28° |
| 2026-05-04 09:35 | 37.53851 | -3.98636 | 8006 ft | 178 kts | 28° |
| 2026-05-04 09:35 | 37.54899 | -3.97792 | 8005 ft | 179 kts | 28° |
| 2026-05-04 09:35 | 37.55950 | -3.96943 | 8003 ft | 179 kts | 28° |
| 2026-05-04 09:35 | 37.57000 | -3.96095 | 8003 ft | 179 kts | 28° |
| 2026-05-04 09:37 | 37.64348 | -3.90150 | 8004 ft | 180 kts | 28° |
| 2026-05-04 09:37 | 37.65405 | -3.89296 | 8014 ft | 180 kts | 28° |
| 2026-05-04 09:38 | 37.66463 | -3.88439 | 8013 ft | 181 kts | 29° |
| 2026-05-04 09:38 | 37.67519 | -3.87580 | 8009 ft | 180 kts | 29° |
| 2026-05-04 09:38 | 37.68567 | -3.86732 | 8011 ft | 178 kts | 29° |
| 2026-05-04 09:38 | 37.69612 | -3.85883 | 8006 ft | 178 kts | 29° |
| 2026-05-04 09:39 | 37.70659 | -3.85039 | 8005 ft | 179 kts | 28° |
| 2026-05-04 09:39 | 37.71708 | -3.84190 | 8011 ft | 179 kts | 28° |
| 2026-05-04 09:39 | 37.72763 | -3.83332 | 8009 ft | 181 kts | 29° |
| 2026-05-04 09:39 | 37.73464 | -3.82759 | 8004 ft | 180 kts | 30° |
| 2026-05-04 09:40 | 37.74849 | -3.81633 | 7999 ft | 177 kts | 29° |
| 2026-05-04 09:40 | 37.75536 | -3.81075 | 7996 ft | 178 kts | 29° |
| 2026-05-04 09:40 | 37.76571 | -3.80234 | 8000 ft | 176 kts | 29° |
| 2026-05-04 09:40 | 37.77595 | -3.79382 | 8000 ft | 176 kts | 30° |
| 2026-05-04 09:41 | 37.78636 | -3.78552 | 7999 ft | 178 kts | 28° |
| 2026-05-04 09:42 | 37.86250 | -3.73524 | 7997 ft | 177 kts | 12° |
| 2026-05-04 09:43 | 37.87430 | -3.73069 | 7999 ft | 177 kts | 12° |
| 2026-05-04 09:43 | 37.88611 | -3.72617 | 7998 ft | 177 kts | 12° |
| 2026-05-04 09:43 | 37.89781 | -3.72172 | 8007 ft | 175 kts | 12° |
| 2026-05-04 09:43 | 37.90937 | -3.71731 | 8003 ft | 173 kts | 12° |
| 2026-05-04 09:44 | 37.92086 | -3.71294 | 8006 ft | 173 kts | 12° |
| 2026-05-04 09:44 | 37.93237 | -3.70855 | 8006 ft | 173 kts | 12° |
| 2026-05-04 09:44 | 37.94391 | -3.70416 | 8002 ft | 173 kts | 12° |
| 2026-05-04 09:46 | 38.02458 | -3.67336 | 7997 ft | 173 kts | 12° |
| 2026-05-04 09:46 | 38.03608 | -3.66896 | 8005 ft | 173 kts | 12° |
| 2026-05-04 09:46 | 38.04761 | -3.66457 | 8002 ft | 173 kts | 12° |
| 2026-05-04 09:47 | 38.05913 | -3.66016 | 7995 ft | 173 kts | 12° |
| 2026-05-04 09:47 | 38.07067 | -3.65574 | 7999 ft | 173 kts | 12° |
| 2026-05-04 09:49 | 38.15164 | -3.62605 | 7987 ft | 168 kts | 355° |
| 2026-05-04 09:49 | 38.16273 | -3.62903 | 7997 ft | 161 kts | 333° |
| 2026-05-04 09:49 | 38.17313 | -3.63437 | 8002 ft | 162 kts | 333° |
| 2026-05-04 09:51 | 38.23621 | -3.66501 | 7990 ft | 161 kts | 334° |
| 2026-05-04 09:51 | 38.24665 | -3.67007 | 7995 ft | 160 kts | 334° |
| 2026-05-04 09:51 | 38.25704 | -3.67521 | 7985 ft | 159 kts | 331° |
| 2026-05-04 09:51 | 38.26682 | -3.68173 | 7988 ft | 158 kts | 325° |
| 2026-05-04 09:52 | 38.27651 | -3.68851 | 7993 ft | 160 kts | 327° |
| 2026-05-04 09:52 | 38.28632 | -3.69512 | 7982 ft | 160 kts | 327° |
| 2026-05-04 09:52 | 38.29604 | -3.70166 | 7986 ft | 160 kts | 327° |
| 2026-05-04 09:52 | 38.30603 | -3.70837 | 7982 ft | 160 kts | 327° |
| 2026-05-04 09:53 | 38.31576 | -3.71486 | 7985 ft | 159 kts | 327° |
| 2026-05-04 09:53 | 38.32545 | -3.72139 | 7983 ft | 156 kts | 328° |
| 2026-05-04 09:53 | 38.33491 | -3.72782 | 7993 ft | 155 kts | 327° |
| 2026-05-04 09:53 | 38.34452 | -3.73426 | 7996 ft | 158 kts | 327° |
| 2026-05-04 09:54 | 38.35431 | -3.74080 | 7994 ft | 160 kts | 327° |
| 2026-05-04 09:54 | 38.36418 | -3.74744 | 8000 ft | 161 kts | 327° |
| 2026-05-04 09:54 | 38.37407 | -3.75411 | 7994 ft | 160 kts | 327° |
| 2026-05-04 09:54 | 38.38392 | -3.76072 | 7999 ft | 160 kts | 327° |
| 2026-05-04 09:55 | 38.39375 | -3.76735 | 7996 ft | 160 kts | 326° |
| 2026-05-04 09:55 | 38.40360 | -3.77398 | 7998 ft | 161 kts | 327° |
| 2026-05-04 09:55 | 38.41346 | -3.78060 | 7985 ft | 158 kts | 327° |
| 2026-05-04 09:55 | 38.42314 | -3.78716 | 7988 ft | 158 kts | 327° |
| 2026-05-04 09:56 | 38.43290 | -3.79373 | 7987 ft | 159 kts | 327° |
| 2026-05-04 09:56 | 38.44274 | -3.80034 | 7985 ft | 160 kts | 327° |
| 2026-05-04 09:56 | 38.45248 | -3.80691 | 7985 ft | 160 kts | 327° |
| 2026-05-04 09:56 | 38.46234 | -3.81352 | 7985 ft | 160 kts | 326° |
| 2026-05-04 09:57 | 38.47220 | -3.82021 | 7993 ft | 161 kts | 327° |
| 2026-05-04 09:57 | 38.48210 | -3.82691 | 7994 ft | 161 kts | 327° |
| 2026-05-04 09:57 | 38.49203 | -3.83359 | 7992 ft | 161 kts | 326° |
| 2026-05-04 09:57 | 38.50201 | -3.84035 | 7988 ft | 163 kts | 327° |
| 2026-05-04 09:58 | 38.51205 | -3.84715 | 7986 ft | 165 kts | 327° |
| 2026-05-04 09:58 | 38.52218 | -3.85398 | 7990 ft | 165 kts | 327° |
| 2026-05-04 09:58 | 38.53227 | -3.86077 | 7984 ft | 163 kts | 327° |
| 2026-05-04 10:00 | 38.60207 | -3.90806 | 7999 ft | 164 kts | 326° |
| 2026-05-04 10:00 | 38.61220 | -3.91491 | 7998 ft | 165 kts | 326° |
| 2026-05-04 10:02 | 38.68343 | -3.96324 | 7999 ft | 166 kts | 326° |
| 2026-05-04 10:04 | 38.75443 | -4.01154 | 7986 ft | 164 kts | 326° |
| 2026-05-04 10:04 | 38.76452 | -4.01841 | 7983 ft | 164 kts | 326° |
| 2026-05-04 10:04 | 38.77459 | -4.02527 | 7982 ft | 164 kts | 326° |
| 2026-05-04 10:04 | 38.78465 | -4.03212 | 7986 ft | 164 kts | 326° |
| 2026-05-04 10:05 | 38.79471 | -4.03897 | 7985 ft | 163 kts | 326° |
| 2026-05-04 10:05 | 38.80476 | -4.04584 | 7986 ft | 163 kts | 326° |
| 2026-05-04 10:05 | 38.81480 | -4.05267 | 7983 ft | 164 kts | 326° |
| 2026-05-04 10:05 | 38.82488 | -4.05956 | 7989 ft | 165 kts | 326° |
| 2026-05-04 10:06 | 38.83501 | -4.06647 | 7984 ft | 165 kts | 325° |
| 2026-05-04 10:06 | 38.84523 | -4.07314 | 7981 ft | 166 kts | 333° |
| 2026-05-04 10:06 | 38.85699 | -4.07322 | 7969 ft | 178 kts | 13° |
| 2026-05-04 10:08 | 38.89425 | -4.09348 | 6193 ft | 93 kts | 179° |
| 2026-05-04 10:08 | 38.88774 | -4.09203 | 6011 ft | 93 kts | 168° |
| 2026-05-04 10:08 | 38.88259 | -4.08680 | 5911 ft | 101 kts | 131° |
| 2026-05-04 10:08 | 38.87830 | -4.07966 | 5837 ft | 101 kts | 131° |
| 2026-05-04 10:09 | 38.87529 | -4.07075 | 5629 ft | 118 kts | 108° |
| 2026-05-04 10:09 | 38.87360 | -4.06020 | 5384 ft | 123 kts | 92° |
| 2026-05-04 10:09 | 38.87421 | -4.05001 | 5158 ft | 101 kts | 56° |
| 2026-05-04 10:09 | 38.87349 | -4.04010 | 4335 ft | 127 kts | 96° |
| 2026-05-04 10:10 | 38.87062 | -4.02925 | 3576 ft | 136 kts | 103° |
| 2026-05-04 10:10 | 38.86650 | -4.01822 | 2811 ft | 139 kts | 110° |
| 2026-05-04 10:10 | 38.86332 | -4.00687 | 2425 ft | 129 kts | 99° |
| 2026-05-04 10:10 | 38.86126 | -3.99605 | 2158 ft | 121 kts | 98° |
| 2026-05-04 10:11 | 38.85956 | -3.98641 | 2076 ft | 102 kts | 102° |
| 2026-05-04 10:11 | 38.85811 | -3.97811 | 2072 ft | 90 kts | 104° |
| 2026-05-04 10:11 | 38.85673 | -3.97055 | 2087 ft | 82 kts | 102° |
| 2026-05-04 10:11 | 38.85613 | -3.96681 | 2092 ft | 21 kts | 103° |
| 2026-05-04 10:12 | 38.85627 | -3.96534 | 2094 ft | 0 kts | 75° |